sensor_id;sensor_type;location;lat;lon;timestamp;P1;durP1;ratioP1;P2;durP2;ratioP2
42036;SDS011;30340;52.004;5.908;2023-05-01T00:01:06;4.55;;;2.53;;
42036;SDS011;30340;52.004;5.908;2023-05-01T00:03:32;3.72;;;2.53;;
42036;SDS011;30340;52.004;5.908;2023-05-01T00:05:58;4.00;;;2.53;;
42036;SDS011;30340;52.004;5.908;2023-05-01T00:08:25;8.43;;;3.65;;
42036;SDS011;30340;52.004;5.908;2023-05-01T00:10:50;4.82;;;2.80;;
42036;SDS011;30340;52.004;5.908;2023-05-01T00:13:16;6.75;;;3.20;;
42036;SDS011;30340;52.004;5.908;2023-05-01T00:15:45;4.85;;;2.70;;
42036;SDS011;30340;52.004;5.908;2023-05-01T00:18:11;4.65;;;2.80;;
42036;SDS011;30340;52.004;5.908;2023-05-01T00:20:37;3.97;;;2.35;;
42036;SDS011;30340;52.004;5.908;2023-05-01T00:23:03;4.43;;;2.67;;
42036;SDS011;30340;52.004;5.908;2023-05-01T00:25:28;5.53;;;3.03;;
42036;SDS011;30340;52.004;5.908;2023-05-01T00:27:55;7.85;;;3.08;;
42036;SDS011;30340;52.004;5.908;2023-05-01T00:30:20;4.30;;;2.60;;
42036;SDS011;30340;52.004;5.908;2023-05-01T00:32:46;5.40;;;2.40;;
42036;SDS011;30340;52.004;5.908;2023-05-01T00:35:12;3.95;;;2.28;;
42036;SDS011;30340;52.004;5.908;2023-05-01T00:37:37;4.53;;;2.60;;
42036;SDS011;30340;52.004;5.908;2023-05-01T00:40:03;5.20;;;2.58;;
42036;SDS011;30340;52.004;5.908;2023-05-01T00:42:33;4.35;;;2.40;;
42036;SDS011;30340;52.004;5.908;2023-05-01T00:45:00;7.13;;;2.88;;
42036;SDS011;30340;52.004;5.908;2023-05-01T00:47:25;5.32;;;2.53;;
42036;SDS011;30340;52.004;5.908;2023-05-01T00:49:51;3.75;;;2.40;;
42036;SDS011;30340;52.004;5.908;2023-05-01T00:52:17;6.03;;;2.08;;
42036;SDS011;30340;52.004;5.908;2023-05-01T00:54:43;4.15;;;2.28;;
42036;SDS011;30340;52.004;5.908;2023-05-01T00:57:15;3.83;;;2.25;;
42036;SDS011;30340;52.004;5.908;2023-05-01T00:59:45;4.88;;;2.63;;
42036;SDS011;30340;52.004;5.908;2023-05-01T01:02:11;4.90;;;2.50;;
42036;SDS011;30340;52.004;5.908;2023-05-01T01:04:38;5.57;;;2.40;;
42036;SDS011;30340;52.004;5.908;2023-05-01T01:09:49;6.18;;;2.95;;
42036;SDS011;30340;52.004;5.908;2023-05-01T01:18:39;5.20;;;2.30;;
42036;SDS011;30340;52.004;5.908;2023-05-01T01:27:18;6.60;;;3.15;;
42036;SDS011;30340;52.004;5.908;2023-05-01T01:30:23;4.43;;;2.83;;
42036;SDS011;30340;52.004;5.908;2023-05-01T01:33:15;5.50;;;3.10;;
42036;SDS011;30340;52.004;5.908;2023-05-01T01:35:53;5.10;;;2.53;;
42036;SDS011;30340;52.004;5.908;2023-05-01T01:38:32;4.32;;;2.30;;
42036;SDS011;30340;52.004;5.908;2023-05-01T01:41:16;4.45;;;2.20;;
42036;SDS011;30340;52.004;5.908;2023-05-01T01:43:47;2.97;;;2.20;;
42036;SDS011;30340;52.004;5.908;2023-05-01T01:46:19;4.50;;;2.25;;
42036;SDS011;30340;52.004;5.908;2023-05-01T01:48:47;3.83;;;2.30;;
42036;SDS011;30340;52.004;5.908;2023-05-01T01:51:16;5.70;;;2.25;;
42036;SDS011;30340;52.004;5.908;2023-05-01T01:53:47;4.03;;;2.42;;
42036;SDS011;30340;52.004;5.908;2023-05-01T01:56:17;6.38;;;2.45;;
42036;SDS011;30340;52.004;5.908;2023-05-01T01:58:45;4.47;;;2.53;;
42036;SDS011;30340;52.004;5.908;2023-05-01T02:01:12;4.07;;;2.10;;
42036;SDS011;30340;52.004;5.908;2023-05-01T02:03:40;3.33;;;2.33;;
42036;SDS011;30340;52.004;5.908;2023-05-01T02:06:08;5.25;;;2.60;;
42036;SDS011;30340;52.004;5.908;2023-05-01T02:08:36;4.30;;;2.50;;
42036;SDS011;30340;52.004;5.908;2023-05-01T02:11:02;3.80;;;2.30;;
42036;SDS011;30340;52.004;5.908;2023-05-01T02:13:30;8.13;;;4.07;;
42036;SDS011;30340;52.004;5.908;2023-05-01T02:15:57;4.50;;;2.90;;
42036;SDS011;30340;52.004;5.908;2023-05-01T02:18:25;7.72;;;3.70;;
42036;SDS011;30340;52.004;5.908;2023-05-01T02:20:52;5.30;;;2.70;;
42036;SDS011;30340;52.004;5.908;2023-05-01T02:23:20;4.28;;;2.60;;
42036;SDS011;30340;52.004;5.908;2023-05-01T02:25:47;3.45;;;2.10;;
42036;SDS011;30340;52.004;5.908;2023-05-01T02:28:14;4.45;;;2.40;;
42036;SDS011;30340;52.004;5.908;2023-05-01T02:30:45;4.78;;;2.30;;
42036;SDS011;30340;52.004;5.908;2023-05-01T02:33:11;4.53;;;2.67;;
42036;SDS011;30340;52.004;5.908;2023-05-01T02:35:40;5.32;;;2.78;;
42036;SDS011;30340;52.004;5.908;2023-05-01T02:38:07;3.35;;;2.33;;
42036;SDS011;30340;52.004;5.908;2023-05-01T02:40:34;4.82;;;2.17;;
42036;SDS011;30340;52.004;5.908;2023-05-01T02:43:02;4.40;;;2.35;;
42036;SDS011;30340;52.004;5.908;2023-05-01T02:45:37;4.60;;;2.55;;
42036;SDS011;30340;52.004;5.908;2023-05-01T02:48:05;5.30;;;3.33;;
42036;SDS011;30340;52.004;5.908;2023-05-01T02:50:34;4.30;;;2.70;;
42036;SDS011;30340;52.004;5.908;2023-05-01T02:53:01;4.50;;;2.60;;
42036;SDS011;30340;52.004;5.908;2023-05-01T02:55:27;5.05;;;2.30;;
42036;SDS011;30340;52.004;5.908;2023-05-01T02:57:56;4.72;;;2.60;;
42036;SDS011;30340;52.004;5.908;2023-05-01T03:00:23;3.42;;;2.10;;
42036;SDS011;30340;52.004;5.908;2023-05-01T03:02:48;4.07;;;1.98;;
42036;SDS011;30340;52.004;5.908;2023-05-01T03:05:14;3.95;;;2.10;;
42036;SDS011;30340;52.004;5.908;2023-05-01T03:07:40;4.18;;;2.10;;
42036;SDS011;30340;52.004;5.908;2023-05-01T03:10:05;4.88;;;2.30;;
42036;SDS011;30340;52.004;5.908;2023-05-01T03:12:32;3.85;;;2.10;;
42036;SDS011;30340;52.004;5.908;2023-05-01T03:14:58;3.08;;;1.95;;
42036;SDS011;30340;52.004;5.908;2023-05-01T03:17:23;2.78;;;2.10;;
42036;SDS011;30340;52.004;5.908;2023-05-01T03:19:49;6.20;;;2.20;;
42036;SDS011;30340;52.004;5.908;2023-05-01T03:22:15;4.45;;;2.10;;
42036;SDS011;30340;52.004;5.908;2023-05-01T03:24:41;2.70;;;1.98;;
42036;SDS011;30340;52.004;5.908;2023-05-01T03:27:07;4.32;;;1.88;;
42036;SDS011;30340;52.004;5.908;2023-05-01T03:29:33;4.13;;;2.08;;
42036;SDS011;30340;52.004;5.908;2023-05-01T03:31:58;4.32;;;2.25;;
42036;SDS011;30340;52.004;5.908;2023-05-01T03:34:24;4.57;;;2.60;;
42036;SDS011;30340;52.004;5.908;2023-05-01T03:36:51;3.83;;;2.20;;
42036;SDS011;30340;52.004;5.908;2023-05-01T03:39:17;6.28;;;2.95;;
42036;SDS011;30340;52.004;5.908;2023-05-01T03:41:43;3.45;;;2.50;;
42036;SDS011;30340;52.004;5.908;2023-05-01T03:44:08;4.50;;;2.42;;
42036;SDS011;30340;52.004;5.908;2023-05-01T03:46:34;3.88;;;2.20;;
42036;SDS011;30340;52.004;5.908;2023-05-01T03:49:00;5.25;;;2.60;;
42036;SDS011;30340;52.004;5.908;2023-05-01T03:51:25;3.53;;;2.40;;
42036;SDS011;30340;52.004;5.908;2023-05-01T03:53:51;3.90;;;2.70;;
42036;SDS011;30340;52.004;5.908;2023-05-01T03:56:17;6.45;;;2.80;;
42036;SDS011;30340;52.004;5.908;2023-05-01T03:58:43;4.13;;;2.58;;
42036;SDS011;30340;52.004;5.908;2023-05-01T04:01:08;3.97;;;2.80;;
42036;SDS011;30340;52.004;5.908;2023-05-01T04:03:34;4.32;;;2.40;;
42036;SDS011;30340;52.004;5.908;2023-05-01T04:05:59;3.83;;;2.50;;
42036;SDS011;30340;52.004;5.908;2023-05-01T04:08:25;4.60;;;2.60;;
42036;SDS011;30340;52.004;5.908;2023-05-01T04:10:51;5.70;;;2.42;;
42036;SDS011;30340;52.004;5.908;2023-05-01T04:13:16;4.07;;;2.60;;
42036;SDS011;30340;52.004;5.908;2023-05-01T04:15:45;4.75;;;2.40;;
42036;SDS011;30340;52.004;5.908;2023-05-01T04:18:10;3.08;;;2.20;;
42036;SDS011;30340;52.004;5.908;2023-05-01T04:20:36;4.38;;;2.50;;
42036;SDS011;30340;52.004;5.908;2023-05-01T04:23:02;6.13;;;2.10;;
42036;SDS011;30340;52.004;5.908;2023-05-01T04:25:27;3.10;;;2.00;;
42036;SDS011;30340;52.004;5.908;2023-05-01T04:27:53;3.92;;;2.50;;
42036;SDS011;30340;52.004;5.908;2023-05-01T04:30:18;5.18;;;2.70;;
42036;SDS011;30340;52.004;5.908;2023-05-01T04:32:44;3.08;;;2.10;;
42036;SDS011;30340;52.004;5.908;2023-05-01T04:35:10;3.90;;;2.20;;
42036;SDS011;30340;52.004;5.908;2023-05-01T04:37:36;3.25;;;2.13;;
42036;SDS011;30340;52.004;5.908;2023-05-01T04:40:02;4.25;;;2.47;;
42036;SDS011;30340;52.004;5.908;2023-05-01T04:42:31;3.45;;;2.53;;
42036;SDS011;30340;52.004;5.908;2023-05-01T04:44:57;4.10;;;2.30;;
42036;SDS011;30340;52.004;5.908;2023-05-01T04:47:25;4.47;;;2.60;;
42036;SDS011;30340;52.004;5.908;2023-05-01T04:49:52;4.40;;;2.70;;
42036;SDS011;30340;52.004;5.908;2023-05-01T04:52:18;4.00;;;2.63;;
42036;SDS011;30340;52.004;5.908;2023-05-01T04:54:43;2.45;;;2.13;;
42036;SDS011;30340;52.004;5.908;2023-05-01T04:57:09;3.80;;;2.20;;
42036;SDS011;30340;52.004;5.908;2023-05-01T04:59:34;4.47;;;2.38;;
42036;SDS011;30340;52.004;5.908;2023-05-01T05:02:00;4.68;;;2.40;;
42036;SDS011;30340;52.004;5.908;2023-05-01T05:04:25;3.85;;;2.20;;
42036;SDS011;30340;52.004;5.908;2023-05-01T05:06:52;5.10;;;2.35;;
42036;SDS011;30340;52.004;5.908;2023-05-01T05:09:17;4.88;;;2.63;;
42036;SDS011;30340;52.004;5.908;2023-05-01T05:11:43;4.03;;;2.58;;
42036;SDS011;30340;52.004;5.908;2023-05-01T05:14:08;4.38;;;2.80;;
42036;SDS011;30340;52.004;5.908;2023-05-01T05:16:34;4.57;;;2.53;;
42036;SDS011;30340;52.004;5.908;2023-05-01T05:19:00;3.92;;;2.80;;
42036;SDS011;30340;52.004;5.908;2023-05-01T05:21:25;7.90;;;3.20;;
42036;SDS011;30340;52.004;5.908;2023-05-01T05:23:51;4.10;;;2.50;;
42036;SDS011;30340;52.004;5.908;2023-05-01T05:26:16;3.85;;;3.00;;
42036;SDS011;30340;52.004;5.908;2023-05-01T05:28:42;3.92;;;2.72;;
42036;SDS011;30340;52.004;5.908;2023-05-01T05:31:08;4.15;;;2.60;;
42036;SDS011;30340;52.004;5.908;2023-05-01T05:33:33;6.32;;;2.65;;
42036;SDS011;30340;52.004;5.908;2023-05-01T05:35:59;4.75;;;2.50;;
42036;SDS011;30340;52.004;5.908;2023-05-01T05:38:25;5.13;;;2.88;;
42036;SDS011;30340;52.004;5.908;2023-05-01T05:40:51;4.75;;;2.65;;
42036;SDS011;30340;52.004;5.908;2023-05-01T05:43:18;5.40;;;2.78;;
42036;SDS011;30340;52.004;5.908;2023-05-01T05:45:44;4.00;;;3.03;;
42036;SDS011;30340;52.004;5.908;2023-05-01T05:48:09;3.92;;;2.55;;
42036;SDS011;30340;52.004;5.908;2023-05-01T05:50:35;4.90;;;2.50;;
42036;SDS011;30340;52.004;5.908;2023-05-01T05:53:00;4.28;;;2.78;;
42036;SDS011;30340;52.004;5.908;2023-05-01T05:55:26;5.03;;;2.67;;
42036;SDS011;30340;52.004;5.908;2023-05-01T05:57:52;7.05;;;2.80;;
42036;SDS011;30340;52.004;5.908;2023-05-01T06:00:17;4.30;;;2.50;;
42036;SDS011;30340;52.004;5.908;2023-05-01T06:02:43;5.68;;;2.35;;
42036;SDS011;30340;52.004;5.908;2023-05-01T06:05:09;4.70;;;2.90;;
42036;SDS011;30340;52.004;5.908;2023-05-01T06:07:35;4.18;;;2.72;;
42036;SDS011;30340;52.004;5.908;2023-05-01T06:10:01;4.57;;;2.58;;
42036;SDS011;30340;52.004;5.908;2023-05-01T06:12:32;5.20;;;2.70;;
42036;SDS011;30340;52.004;5.908;2023-05-01T06:14:57;4.80;;;2.58;;
42036;SDS011;30340;52.004;5.908;2023-05-01T06:17:23;3.13;;;2.60;;
42036;SDS011;30340;52.004;5.908;2023-05-01T06:19:49;3.85;;;2.90;;
42036;SDS011;30340;52.004;5.908;2023-05-01T06:22:17;4.90;;;2.80;;
42036;SDS011;30340;52.004;5.908;2023-05-01T06:24:43;4.47;;;2.90;;
42036;SDS011;30340;52.004;5.908;2023-05-01T06:27:09;4.80;;;2.90;;
42036;SDS011;30340;52.004;5.908;2023-05-01T06:29:35;4.10;;;2.90;;
42036;SDS011;30340;52.004;5.908;2023-05-01T06:32:00;4.90;;;3.03;;
42036;SDS011;30340;52.004;5.908;2023-05-01T06:34:26;6.70;;;3.20;;
42036;SDS011;30340;52.004;5.908;2023-05-01T06:36:52;4.43;;;2.88;;
42036;SDS011;30340;52.004;5.908;2023-05-01T06:39:17;5.68;;;3.10;;
42036;SDS011;30340;52.004;5.908;2023-05-01T06:41:46;4.25;;;3.28;;
42036;SDS011;30340;52.004;5.908;2023-05-01T06:44:12;4.30;;;2.75;;
42036;SDS011;30340;52.004;5.908;2023-05-01T06:46:38;5.55;;;2.95;;
42036;SDS011;30340;52.004;5.908;2023-05-01T06:49:03;4.78;;;3.30;;
42036;SDS011;30340;52.004;5.908;2023-05-01T06:51:29;5.00;;;3.10;;
42036;SDS011;30340;52.004;5.908;2023-05-01T06:53:55;7.43;;;3.35;;
42036;SDS011;30340;52.004;5.908;2023-05-01T06:56:21;4.80;;;3.35;;
42036;SDS011;30340;52.004;5.908;2023-05-01T06:58:47;4.70;;;3.08;;
42036;SDS011;30340;52.004;5.908;2023-05-01T07:01:12;6.40;;;3.13;;
42036;SDS011;30340;52.004;5.908;2023-05-01T07:03:38;5.03;;;2.95;;
42036;SDS011;30340;52.004;5.908;2023-05-01T07:06:03;4.70;;;3.20;;
42036;SDS011;30340;52.004;5.908;2023-05-01T07:08:29;5.05;;;2.90;;
42036;SDS011;30340;52.004;5.908;2023-05-01T07:10:55;4.80;;;3.33;;
42036;SDS011;30340;52.004;5.908;2023-05-01T07:13:20;5.85;;;3.22;;
42036;SDS011;30340;52.004;5.908;2023-05-01T07:15:46;5.43;;;3.10;;
42036;SDS011;30340;52.004;5.908;2023-05-01T07:18:12;5.45;;;3.30;;
42036;SDS011;30340;52.004;5.908;2023-05-01T07:20:38;6.03;;;3.63;;
42036;SDS011;30340;52.004;5.908;2023-05-01T07:23:04;6.35;;;3.47;;
42036;SDS011;30340;52.004;5.908;2023-05-01T07:25:30;4.55;;;3.15;;
42036;SDS011;30340;52.004;5.908;2023-05-01T07:27:55;5.72;;;3.20;;
42036;SDS011;30340;52.004;5.908;2023-05-01T07:30:21;4.53;;;3.15;;
42036;SDS011;30340;52.004;5.908;2023-05-01T07:32:47;7.20;;;3.78;;
42036;SDS011;30340;52.004;5.908;2023-05-01T07:35:12;5.93;;;3.10;;
42036;SDS011;30340;52.004;5.908;2023-05-01T07:37:38;5.82;;;3.60;;
42036;SDS011;30340;52.004;5.908;2023-05-01T07:40:04;5.78;;;3.45;;
42036;SDS011;30340;52.004;5.908;2023-05-01T07:42:29;5.28;;;3.55;;
42036;SDS011;30340;52.004;5.908;2023-05-01T07:44:55;5.50;;;3.30;;
42036;SDS011;30340;52.004;5.908;2023-05-01T07:47:21;6.38;;;3.80;;
42036;SDS011;30340;52.004;5.908;2023-05-01T07:49:46;6.57;;;3.80;;
42036;SDS011;30340;52.004;5.908;2023-05-01T07:52:12;5.53;;;3.45;;
42036;SDS011;30340;52.004;5.908;2023-05-01T07:54:39;4.95;;;3.20;;
42036;SDS011;30340;52.004;5.908;2023-05-01T07:57:05;5.57;;;3.08;;
42036;SDS011;30340;52.004;5.908;2023-05-01T07:59:31;7.25;;;3.88;;
42036;SDS011;30340;52.004;5.908;2023-05-01T08:01:56;5.68;;;3.70;;
42036;SDS011;30340;52.004;5.908;2023-05-01T08:04:22;6.78;;;3.90;;
42036;SDS011;30340;52.004;5.908;2023-05-01T08:06:50;4.38;;;3.13;;
42036;SDS011;30340;52.004;5.908;2023-05-01T08:09:16;6.85;;;4.20;;
42036;SDS011;30340;52.004;5.908;2023-05-01T08:11:42;7.45;;;4.32;;
42036;SDS011;30340;52.004;5.908;2023-05-01T08:14:07;5.65;;;3.60;;
42036;SDS011;30340;52.004;5.908;2023-05-01T08:16:36;7.47;;;3.70;;
42036;SDS011;30340;52.004;5.908;2023-05-01T08:19:01;6.57;;;3.78;;
42036;SDS011;30340;52.004;5.908;2023-05-01T08:21:28;4.80;;;2.92;;
42036;SDS011;30340;52.004;5.908;2023-05-01T08:23:54;6.68;;;3.90;;
42036;SDS011;30340;52.004;5.908;2023-05-01T08:26:20;4.90;;;3.70;;
42036;SDS011;30340;52.004;5.908;2023-05-01T08:28:46;5.03;;;3.40;;
42036;SDS011;30340;52.004;5.908;2023-05-01T08:31:12;5.65;;;3.40;;
42036;SDS011;30340;52.004;5.908;2023-05-01T08:33:38;7.47;;;3.92;;
42036;SDS011;30340;52.004;5.908;2023-05-01T08:36:06;6.97;;;3.20;;
42036;SDS011;30340;52.004;5.908;2023-05-01T08:38:34;4.45;;;3.00;;
42036;SDS011;30340;52.004;5.908;2023-05-01T08:40:59;5.10;;;3.30;;
42036;SDS011;30340;52.004;5.908;2023-05-01T08:43:27;6.85;;;3.90;;
42036;SDS011;30340;52.004;5.908;2023-05-01T08:45:55;7.63;;;3.70;;
42036;SDS011;30340;52.004;5.908;2023-05-01T08:48:24;4.47;;;3.20;;
42036;SDS011;30340;52.004;5.908;2023-05-01T08:50:52;4.57;;;3.15;;
42036;SDS011;30340;52.004;5.908;2023-05-01T08:53:21;4.93;;;2.90;;
42036;SDS011;30340;52.004;5.908;2023-05-01T08:55:48;5.03;;;3.70;;
42036;SDS011;30340;52.004;5.908;2023-05-01T08:58:16;4.93;;;3.33;;
42036;SDS011;30340;52.004;5.908;2023-05-01T09:00:43;5.28;;;3.35;;
42036;SDS011;30340;52.004;5.908;2023-05-01T09:03:11;6.53;;;3.67;;
42036;SDS011;30340;52.004;5.908;2023-05-01T09:05:38;5.45;;;3.05;;
42036;SDS011;30340;52.004;5.908;2023-05-01T09:08:03;5.20;;;3.40;;
42036;SDS011;30340;52.004;5.908;2023-05-01T09:10:29;5.07;;;3.28;;
42036;SDS011;30340;52.004;5.908;2023-05-01T09:12:59;5.68;;;3.92;;
42036;SDS011;30340;52.004;5.908;2023-05-01T09:15:26;4.38;;;2.70;;
42036;SDS011;30340;52.004;5.908;2023-05-01T09:17:55;4.97;;;2.90;;
42036;SDS011;30340;52.004;5.908;2023-05-01T09:20:24;6.65;;;3.70;;
42036;SDS011;30340;52.004;5.908;2023-05-01T09:22:50;4.18;;;2.90;;
42036;SDS011;30340;52.004;5.908;2023-05-01T09:25:15;5.85;;;2.97;;
42036;SDS011;30340;52.004;5.908;2023-05-01T09:27:42;7.65;;;3.17;;
42036;SDS011;30340;52.004;5.908;2023-05-01T09:30:09;5.63;;;3.40;;
42036;SDS011;30340;52.004;5.908;2023-05-01T09:33:04;5.60;;;3.25;;
42036;SDS011;30340;52.004;5.908;2023-05-01T09:35:30;4.25;;;2.88;;
42036;SDS011;30340;52.004;5.908;2023-05-01T09:37:57;3.75;;;2.20;;
42036;SDS011;30340;52.004;5.908;2023-05-01T09:40:25;5.20;;;2.55;;
42036;SDS011;30340;52.004;5.908;2023-05-01T09:42:51;3.95;;;2.38;;
42036;SDS011;30340;52.004;5.908;2023-05-01T09:45:20;4.40;;;2.72;;
42036;SDS011;30340;52.004;5.908;2023-05-01T09:47:47;4.40;;;2.40;;
42036;SDS011;30340;52.004;5.908;2023-05-01T09:50:32;3.08;;;2.33;;
42036;SDS011;30340;52.004;5.908;2023-05-01T09:53:02;3.85;;;2.25;;
42036;SDS011;30340;52.004;5.908;2023-05-01T09:55:30;3.40;;;2.05;;
42036;SDS011;30340;52.004;5.908;2023-05-01T09:57:56;2.67;;;1.60;;
42036;SDS011;30340;52.004;5.908;2023-05-01T10:00:25;2.65;;;1.95;;
42036;SDS011;30340;52.004;5.908;2023-05-01T10:02:51;1.38;;;1.23;;
42036;SDS011;30340;52.004;5.908;2023-05-01T10:05:17;3.08;;;1.52;;
42036;SDS011;30340;52.004;5.908;2023-05-01T10:07:59;2.97;;;1.63;;
42036;SDS011;30340;52.004;5.908;2023-05-01T10:10:26;4.10;;;2.00;;
42036;SDS011;30340;52.004;5.908;2023-05-01T10:12:52;3.42;;;1.42;;
42036;SDS011;30340;52.004;5.908;2023-05-01T10:15:17;4.47;;;1.73;;
42036;SDS011;30340;52.004;5.908;2023-05-01T10:17:44;2.10;;;1.30;;
42036;SDS011;30340;52.004;5.908;2023-05-01T10:20:10;2.17;;;1.42;;
42036;SDS011;30340;52.004;5.908;2023-05-01T10:22:36;1.98;;;1.40;;
42036;SDS011;30340;52.004;5.908;2023-05-01T10:25:03;2.50;;;1.20;;
42036;SDS011;30340;52.004;5.908;2023-05-01T10:27:38;2.33;;;1.45;;
42036;SDS011;30340;52.004;5.908;2023-05-01T10:30:07;2.05;;;1.40;;
42036;SDS011;30340;52.004;5.908;2023-05-01T10:32:34;1.40;;;1.30;;
42036;SDS011;30340;52.004;5.908;2023-05-01T10:35:02;2.88;;;1.20;;
42036;SDS011;30340;52.004;5.908;2023-05-01T10:37:59;2.03;;;1.30;;
42036;SDS011;30340;52.004;5.908;2023-05-01T10:43:13;1.90;;;1.27;;
42036;SDS011;30340;52.004;5.908;2023-05-01T10:45:46;2.10;;;1.40;;
42036;SDS011;30340;52.004;5.908;2023-05-01T10:51:13;4.03;;;1.40;;
42036;SDS011;30340;52.004;5.908;2023-05-01T10:53:40;3.33;;;1.60;;
42036;SDS011;30340;52.004;5.908;2023-05-01T11:04:05;1.80;;;1.38;;
42036;SDS011;30340;52.004;5.908;2023-05-01T11:12:11;2.75;;;1.42;;
42036;SDS011;30340;52.004;5.908;2023-05-01T11:20:05;2.40;;;1.20;;
42036;SDS011;30340;52.004;5.908;2023-05-01T11:22:31;2.33;;;1.58;;
42036;SDS011;30340;52.004;5.908;2023-05-01T11:24:57;2.40;;;1.20;;
42036;SDS011;30340;52.004;5.908;2023-05-01T11:27:24;2.35;;;1.25;;
42036;SDS011;30340;52.004;5.908;2023-05-01T11:29:52;3.60;;;1.23;;
42036;SDS011;30340;52.004;5.908;2023-05-01T11:32:20;2.15;;;1.48;;
42036;SDS011;30340;52.004;5.908;2023-05-01T11:34:49;3.43;;;2.13;;
42036;SDS011;30340;52.004;5.908;2023-05-01T11:37:15;4.50;;;2.03;;
42036;SDS011;30340;52.004;5.908;2023-05-01T11:39:47;4.00;;;1.80;;
42036;SDS011;30340;52.004;5.908;2023-05-01T11:42:14;3.22;;;1.50;;
42036;SDS011;30340;52.004;5.908;2023-05-01T11:44:39;1.70;;;1.20;;
42036;SDS011;30340;52.004;5.908;2023-05-01T11:47:05;1.90;;;1.30;;
42036;SDS011;30340;52.004;5.908;2023-05-01T11:49:31;3.33;;;1.52;;
42036;SDS011;30340;52.004;5.908;2023-05-01T11:51:57;2.83;;;1.30;;
42036;SDS011;30340;52.004;5.908;2023-05-01T11:54:23;2.50;;;1.60;;
42036;SDS011;30340;52.004;5.908;2023-05-01T11:56:56;2.25;;;1.55;;
42036;SDS011;30340;52.004;5.908;2023-05-01T11:59:25;3.20;;;1.70;;
42036;SDS011;30340;52.004;5.908;2023-05-01T12:01:51;3.58;;;1.77;;
42036;SDS011;30340;52.004;5.908;2023-05-01T12:04:24;2.90;;;1.60;;
42036;SDS011;30340;52.004;5.908;2023-05-01T12:06:53;4.18;;;1.70;;
42036;SDS011;30340;52.004;5.908;2023-05-01T12:09:20;3.78;;;1.83;;
42036;SDS011;30340;52.004;5.908;2023-05-01T12:11:47;4.55;;;1.65;;
42036;SDS011;30340;52.004;5.908;2023-05-01T12:14:15;3.70;;;1.90;;
42036;SDS011;30340;52.004;5.908;2023-05-01T12:16:41;2.90;;;1.63;;
42036;SDS011;30340;52.004;5.908;2023-05-01T12:19:07;3.75;;;1.60;;
42036;SDS011;30340;52.004;5.908;2023-05-01T12:21:36;4.57;;;1.80;;
42036;SDS011;30340;52.004;5.908;2023-05-01T12:24:11;3.38;;;1.73;;
42036;SDS011;30340;52.004;5.908;2023-05-01T12:26:41;4.30;;;1.75;;
42036;SDS011;30340;52.004;5.908;2023-05-01T12:29:07;4.22;;;1.88;;
42036;SDS011;30340;52.004;5.908;2023-05-01T12:31:34;4.20;;;1.70;;
42036;SDS011;30340;52.004;5.908;2023-05-01T12:34:03;4.32;;;1.60;;
42036;SDS011;30340;52.004;5.908;2023-05-01T12:36:31;3.00;;;1.60;;
42036;SDS011;30340;52.004;5.908;2023-05-01T12:39:08;3.38;;;1.45;;
42036;SDS011;30340;52.004;5.908;2023-05-01T12:41:39;3.40;;;1.75;;
42036;SDS011;30340;52.004;5.908;2023-05-01T12:44:19;2.90;;;1.25;;
42036;SDS011;30340;52.004;5.908;2023-05-01T12:46:59;2.63;;;1.45;;
42036;SDS011;30340;52.004;5.908;2023-05-01T12:49:26;3.17;;;1.52;;
42036;SDS011;30340;52.004;5.908;2023-05-01T12:51:54;1.42;;;1.13;;
42036;SDS011;30340;52.004;5.908;2023-05-01T12:54:22;1.85;;;1.17;;
42036;SDS011;30340;52.004;5.908;2023-05-01T12:56:50;5.88;;;1.77;;
42036;SDS011;30340;52.004;5.908;2023-05-01T12:59:22;2.63;;;1.50;;
42036;SDS011;30340;52.004;5.908;2023-05-01T13:02:01;2.47;;;1.60;;
42036;SDS011;30340;52.004;5.908;2023-05-01T13:04:29;2.15;;;1.33;;
42036;SDS011;30340;52.004;5.908;2023-05-01T13:06:55;2.05;;;1.30;;
42036;SDS011;30340;52.004;5.908;2023-05-01T13:09:22;2.03;;;1.75;;
42036;SDS011;30340;52.004;5.908;2023-05-01T13:11:57;4.32;;;1.70;;
42036;SDS011;30340;52.004;5.908;2023-05-01T13:14:34;3.55;;;1.90;;
42036;SDS011;30340;52.004;5.908;2023-05-01T13:17:05;3.80;;;1.85;;
42036;SDS011;30340;52.004;5.908;2023-05-01T13:19:31;4.15;;;2.00;;
42036;SDS011;30340;52.004;5.908;2023-05-01T13:21:57;2.72;;;1.85;;
42036;SDS011;30340;52.004;5.908;2023-05-01T13:24:23;2.45;;;1.60;;
42036;SDS011;30340;52.004;5.908;2023-05-01T13:26:59;2.35;;;1.60;;
42036;SDS011;30340;52.004;5.908;2023-05-01T13:29:26;3.30;;;1.40;;
42036;SDS011;30340;52.004;5.908;2023-05-01T13:31:53;2.42;;;1.40;;
42036;SDS011;30340;52.004;5.908;2023-05-01T13:34:28;1.73;;;1.35;;
42036;SDS011;30340;52.004;5.908;2023-05-01T13:36:55;2.35;;;1.38;;
42036;SDS011;30340;52.004;5.908;2023-05-01T13:39:21;2.30;;;1.40;;
42036;SDS011;30340;52.004;5.908;2023-05-01T13:41:48;3.83;;;1.90;;
42036;SDS011;30340;52.004;5.908;2023-05-01T13:44:15;2.40;;;1.83;;
42036;SDS011;30340;52.004;5.908;2023-05-01T13:46:41;2.05;;;1.45;;
42036;SDS011;30340;52.004;5.908;2023-05-01T13:49:07;2.83;;;1.65;;
42036;SDS011;30340;52.004;5.908;2023-05-01T13:51:32;3.75;;;2.10;;
42036;SDS011;30340;52.004;5.908;2023-05-01T13:54:01;2.15;;;1.55;;
42036;SDS011;30340;52.004;5.908;2023-05-01T13:56:28;3.78;;;2.20;;
42036;SDS011;30340;52.004;5.908;2023-05-01T13:58:57;3.90;;;2.60;;
42036;SDS011;30340;52.004;5.908;2023-05-01T14:01:23;6.03;;;2.80;;
42036;SDS011;30340;52.004;5.908;2023-05-01T14:03:49;6.57;;;3.35;;
42036;SDS011;30340;52.004;5.908;2023-05-01T14:06:16;5.22;;;3.20;;
42036;SDS011;30340;52.004;5.908;2023-05-01T14:08:43;5.85;;;3.50;;
42036;SDS011;30340;52.004;5.908;2023-05-01T14:11:10;4.05;;;2.88;;
42036;SDS011;30340;52.004;5.908;2023-05-01T14:13:41;5.65;;;3.47;;
42036;SDS011;30340;52.004;5.908;2023-05-01T14:16:08;5.85;;;3.08;;
42036;SDS011;30340;52.004;5.908;2023-05-01T14:18:43;5.55;;;3.58;;
42036;SDS011;30340;52.004;5.908;2023-05-01T14:21:10;5.18;;;3.90;;
42036;SDS011;30340;52.004;5.908;2023-05-01T14:23:39;4.63;;;2.97;;
42036;SDS011;30340;52.004;5.908;2023-05-01T14:26:08;6.72;;;3.40;;
42036;SDS011;30340;52.004;5.908;2023-05-01T14:28:40;6.20;;;3.50;;
42036;SDS011;30340;52.004;5.908;2023-05-01T14:33:55;5.75;;;3.10;;
42036;SDS011;30340;52.004;5.908;2023-05-01T14:36:30;5.07;;;3.20;;
42036;SDS011;30340;52.004;5.908;2023-05-01T14:38:57;5.22;;;3.50;;
42036;SDS011;30340;52.004;5.908;2023-05-01T14:41:23;4.30;;;2.80;;
42036;SDS011;30340;52.004;5.908;2023-05-01T14:43:49;4.70;;;3.03;;
42036;SDS011;30340;52.004;5.908;2023-05-01T14:46:22;6.20;;;3.78;;
42036;SDS011;30340;52.004;5.908;2023-05-01T14:48:51;5.43;;;3.92;;
42036;SDS011;30340;52.004;5.908;2023-05-01T14:51:18;5.43;;;3.40;;
42036;SDS011;30340;52.004;5.908;2023-05-01T14:53:44;6.10;;;3.75;;
42036;SDS011;30340;52.004;5.908;2023-05-01T14:56:10;6.45;;;3.83;;
42036;SDS011;30340;52.004;5.908;2023-05-01T14:58:36;5.43;;;3.63;;
42036;SDS011;30340;52.004;5.908;2023-05-01T15:01:02;4.90;;;3.20;;
42036;SDS011;30340;52.004;5.908;2023-05-01T15:03:28;8.82;;;4.10;;
42036;SDS011;30340;52.004;5.908;2023-05-01T15:05:53;5.05;;;3.50;;
42036;SDS011;30340;52.004;5.908;2023-05-01T15:08:20;5.93;;;3.58;;
42036;SDS011;30340;52.004;5.908;2023-05-01T15:10:46;5.25;;;3.28;;
42036;SDS011;30340;52.004;5.908;2023-05-01T15:13:12;7.85;;;3.80;;
42036;SDS011;30340;52.004;5.908;2023-05-01T15:15:37;5.43;;;3.33;;
42036;SDS011;30340;52.004;5.908;2023-05-01T15:18:03;6.85;;;3.53;;
42036;SDS011;30340;52.004;5.908;2023-05-01T15:20:29;4.30;;;2.83;;
42036;SDS011;30340;52.004;5.908;2023-05-01T15:22:55;2.92;;;2.30;;
42036;SDS011;30340;52.004;5.908;2023-05-01T15:25:20;6.43;;;3.17;;
42036;SDS011;30340;52.004;5.908;2023-05-01T15:27:46;5.32;;;2.90;;
42036;SDS011;30340;52.004;5.908;2023-05-01T15:30:14;3.97;;;2.47;;
42036;SDS011;30340;52.004;5.908;2023-05-01T15:32:39;4.97;;;2.80;;